Time;durP1;ratioP1;P1;durP2;ratioP2;P2;SDS_P1;SDS_P2;PMS_P1;PMS_P2;Temp;Humidity;BMP_temperature;BMP_pressure;BME280_temperature;BME280_humidity;BME280_pressure;Samples;Min_cycle;Max_cycle;Signal;HPM_P1;HPM_P2
2022/01/11 00:01:53;;;;;;;1999.90;999.90;;;;;;;-1.18;92.48;162086.25;5048902;28;20052;-67
2022/01/11 00:04:21;;;;;;;1999.90;999.90;;;;;;;-1.01;91.80;162129.94;5048323;28;20144;-68
2022/01/11 00:06:50;;;;;;;1999.90;999.90;;;;;;;-0.55;89.48;162254.31;5049450;28;20106;-68
2022/01/11 00:09:23;;;;;;;1999.90;999.90;;;;;;;-0.77;89.27;162195.56;5048773;28;20456;-68
2022/01/11 00:11:50;;;;;;;1999.90;999.90;;;;;;;-0.76;89.03;162198.31;5050536;28;20111;-69
2022/01/11 00:14:18;;;;;;;1999.90;999.90;;;;;;;-0.65;88.22;162225.63;5048087;28;20077;-67
2022/01/11 00:16:45;;;;;;;1999.90;999.90;;;;;;;-1.01;89.26;162129.94;5048753;28;20426;-68
2022/01/11 00:19:13;;;;;;;1999.90;999.90;;;;;;;-1.19;90.55;162082.16;5049526;28;20449;-68
2022/01/11 00:21:46;;;;;;;1999.90;999.90;;;;;;;-1.32;90.24;162048.03;5048985;28;20110;-68
2022/01/11 00:27:13;;;;;;;1999.90;999.90;;;;;;;-0.65;87.89;162225.63;5049008;28;20099;-68
2022/01/11 00:29:43;;;;;;;1999.90;999.90;;;;;;;-0.72;87.31;162207.84;5048128;28;20083;-68
2022/01/11 00:32:15;;;;;;;1999.90;999.90;;;;;;;-0.62;87.21;162235.19;5048225;28;20093;-68
2022/01/11 00:34:50;;;;;;;1999.90;999.90;;;;;;;-1.12;87.35;162102.63;5041532;28;20073;-68
2022/01/11 00:37:20;;;;;;;1999.90;999.90;;;;;;;-1.12;88.61;162101.28;5044405;28;20402;-67
2022/01/11 00:39:50;;;;;;;1999.90;999.90;;;;;;;-1.21;87.82;162076.69;5042886;28;20045;-66
2022/01/11 00:42:18;;;;;;;1999.90;999.90;;;;;;;-1.07;87.34;162114.97;5047686;28;20057;-66
2022/01/11 00:44:44;;;;;;;1999.90;999.90;;;;;;;-1.03;87.45;162124.50;5048112;28;20145;-66
2022/01/11 00:47:11;;;;;;;1999.90;999.90;;;;;;;-1.07;86.13;162116.31;5047820;28;20044;-67
2022/01/11 00:49:40;;;;;;;1999.90;999.90;;;;;;;-0.94;85.51;162149.09;5048121;28;20103;-67
2022/01/11 00:52:08;;;;;;;1999.90;999.90;;;;;;;-1.65;87.28;161960.63;5045820;28;20083;-66
2022/01/11 00:54:35;;;;;;;1999.90;999.90;;;;;;;-1.58;87.30;161979.72;5048050;28;20081;-67
2022/01/11 00:57:01;;;;;;;1999.90;999.90;;;;;;;-1.33;86.85;162045.28;5043486;28;20057;-66
2022/01/11 00:59:28;;;;;;;1999.90;999.90;;;;;;;-1.64;86.75;161964.75;5040127;28;20088;-67
2022/01/11 01:01:55;;;;;;;1999.90;999.90;;;;;;;-1.70;86.38;161946.97;5047891;28;20080;-67
2022/01/11 01:04:22;;;;;;;1999.90;999.90;;;;;;;-1.54;86.79;161990.66;5045461;28;20057;-67
2022/01/11 01:06:48;;;;;;;1999.90;999.90;;;;;;;-1.95;86.57;161881.41;5045124;28;20354;-67
2022/01/11 01:09:15;;;;;;;1999.90;999.90;;;;;;;-1.87;86.63;161901.94;5044762;28;20057;-67
2022/01/11 01:11:44;;;;;;;1999.90;999.90;;;;;;;-1.00;84.50;162134.03;5042717;28;20080;-67
2022/01/11 01:14:11;;;;;;;1999.90;999.90;;;;;;;-1.45;84.97;162013.88;5048147;28;20045;-67
2022/01/11 01:16:38;;;;;;;1999.90;999.90;;;;;;;-1.16;84.44;162091.75;5048914;28;20122;-67
2022/01/11 01:19:05;;;;;;;1999.90;999.90;;;;;;;-1.39;85.08;162028.91;5041438;28;20095;-67
2022/01/11 01:21:37;;;;;;;1999.90;999.90;;;;;;;-1.16;83.94;162090.34;5043437;28;20073;-67
2022/01/11 01:24:06;;;;;;;1999.90;999.90;;;;;;;-0.94;83.61;162149.09;5043909;28;20045;-67
2022/01/11 01:26:38;;;;;;;1999.90;999.90;;;;;;;-1.15;84.52;162093.09;5035074;28;20049;-67
2022/01/11 01:29:04;;;;;;;1999.90;999.90;;;;;;;-0.76;83.07;162198.31;5048169;28;20395;-67
2022/01/11 01:31:32;;;;;;;1999.90;999.90;;;;;;;-0.61;82.76;162237.91;5046805;28;20338;-68
2022/01/11 01:33:59;;;;;;;1999.90;999.90;;;;;;;-0.81;82.82;162184.59;5046910;28;20090;-68
2022/01/11 01:36:26;;;;;;;1999.90;999.90;;;;;;;-0.88;83.51;162165.47;5050344;28;20171;-67
2022/01/11 01:38:52;;;;;;;1999.90;999.90;;;;;;;-1.09;83.55;162110.88;5047100;28;20484;-67
2022/01/11 01:41:21;;;;;;;1999.90;999.90;;;;;;;-0.46;82.10;162277.56;5040730;28;20099;-67
2022/01/11 01:43:53;;;;;;;1999.90;999.90;;;;;;;-0.78;82.84;162192.81;5044419;28;20110;-67
2022/01/11 01:46:22;;;;;;;1999.90;999.90;;;;;;;-0.92;83.60;162155.94;5049861;28;20044;-67
2022/01/11 01:48:49;;;;;;;1999.90;999.90;;;;;;;-0.73;83.05;162206.50;5045433;28;20045;-67
2022/01/11 01:51:17;;;;;;;1999.90;999.90;;;;;;;-1.08;83.42;162113.56;5046818;28;20088;-67
2022/01/11 01:53:47;;;;;;;1999.90;999.90;;;;;;;-0.72;82.66;162207.84;5047816;28;20045;-67
2022/01/11 01:56:17;;;;;;;1999.90;999.90;;;;;;;-1.27;84.22;162061.66;5036222;28;20146;-67
2022/01/11 01:58:44;;;;;;;1999.90;999.90;;;;;;;-1.55;85.60;161987.91;5047684;28;20084;-67
2022/01/11 02:01:14;;;;;;;1999.90;999.90;;;;;;;-1.42;84.08;162022.06;5047137;28;20107;-67
2022/01/11 02:03:43;;;;;;;1999.90;999.90;;;;;;;-1.15;83.73;162094.44;5046723;28;20087;-67
2022/01/11 02:06:12;;;;;;;1999.90;999.90;;;;;;;-1.39;83.76;162028.91;5047412;28;20119;-67
2022/01/11 02:08:39;;;;;;;1999.90;999.90;;;;;;;-1.15;83.45;162094.44;5047145;28;20080;-67
2022/01/11 02:11:06;;;;;;;1999.90;999.90;;;;;;;-1.17;82.94;162089.00;5044613;28;20125;-67
2022/01/11 02:13:33;;;;;;;1999.90;999.90;;;;;;;-1.15;83.38;162094.44;5048822;28;20106;-67
2022/01/11 02:16:00;;;;;;;1999.90;999.90;;;;;;;-1.11;82.84;162104.03;5046015;28;20114;-67
2022/01/11 02:18:27;;;;;;;1999.90;999.90;;;;;;;-1.18;83.24;162086.25;5040221;28;20052;-67
2022/01/11 02:20:58;;;;;;;1999.90;999.90;;;;;;;-0.79;81.82;162188.72;5045676;28;20393;-67
2022/01/11 02:23:27;;;;;;;1999.90;999.90;;;;;;;-0.62;80.89;162233.81;5046304;28;20092;-67
2022/01/11 02:25:54;;;;;;;1999.90;999.90;;;;;;;-0.96;81.59;162143.63;5046166;28;20137;-67
2022/01/11 02:28:23;;;;;;;1999.90;999.90;;;;;;;-0.75;80.21;162201.00;5045769;28;20091;-67
2022/01/11 02:30:52;;;;;;;1999.90;999.90;;;;;;;-1.07;82.22;162116.31;5045350;28;20194;-67
2022/01/11 02:33:41;;;;;;;1999.90;999.90;;;;;;;-1.25;82.05;162067.13;5043355;28;20052;-67
2022/01/11 02:36:12;;;;;;;1999.90;999.90;;;;;;;-1.57;82.87;161982.47;5045243;28;20080;-67
2022/01/11 02:38:38;;;;;;;1999.90;999.90;;;;;;;-1.00;81.35;162132.69;5045964;28;20049;-67
2022/01/11 02:41:05;;;;;;;1999.90;999.90;;;;;;;-0.85;80.31;162173.66;5046084;28;20547;-67
2022/01/11 02:43:32;;;;;;;1999.90;999.90;;;;;;;-0.52;79.44;162261.16;5046065;28;20087;-67
2022/01/11 02:46:00;;;;;;;1999.90;999.90;;;;;;;-1.10;80.86;162108.13;5045832;28;20054;-67
2022/01/11 02:48:28;;;;;;;1999.90;999.90;;;;;;;-1.21;81.55;162078.06;5046021;28;20145;-67
2022/01/11 02:50:54;;;;;;;1999.90;999.90;;;;;;;-1.29;81.53;162056.22;5045222;28;20085;-67
2022/01/11 02:53:21;;;;;;;1999.90;999.90;;;;;;;-0.92;80.86;162154.59;5047341;28;20257;-67
2022/01/11 02:55:48;;;;;;;1999.90;999.90;;;;;;;-0.72;80.11;162209.19;5046250;28;20430;-67
2022/01/11 02:58:14;;;;;;;1999.90;999.90;;;;;;;-0.74;79.85;162203.75;5047510;28;20056;-68
2022/01/11 03:00:41;;;;;;;1999.90;999.90;;;;;;;-0.20;78.93;162347.22;5044094;28;20045;-67
2022/01/11 03:03:22;;;;;;;1999.90;999.90;;;;;;;-0.23;78.98;162339.03;5045808;28;20337;-67
2022/01/11 03:05:53;;;;;;;1999.90;999.90;;;;;;;-0.52;79.96;162261.16;5045746;28;20288;-67
2022/01/11 03:08:20;;;;;;;1999.90;999.90;;;;;;;-0.56;79.88;162251.56;5045901;28;20098;-67
2022/01/11 03:10:48;;;;;;;1999.90;999.90;;;;;;;-0.74;80.49;162203.75;5045801;28;20464;-67
2022/01/11 03:13:16;;;;;;;1999.90;999.90;;;;;;;-1.11;81.50;162105.38;5034137;28;20770;-67
2022/01/11 03:15:44;;;;;;;1999.90;999.90;;;;;;;-0.91;81.09;162157.28;5044539;28;20106;-67
2022/01/11 03:18:12;;;;;;;1999.90;999.90;;;;;;;-0.36;79.17;162304.88;5039990;28;20053;-67
2022/01/11 03:20:42;;;;;;;1999.90;999.90;;;;;;;-0.38;78.59;162299.38;5040690;28;20080;-67
2022/01/11 03:23:09;;;;;;;1999.90;999.90;;;;;;;-0.86;80.08;162170.97;5043349;28;20092;-67
2022/01/11 03:25:36;;;;;;;1999.90;999.90;;;;;;;-1.22;81.62;162073.94;5046826;28;20130;-67
2022/01/11 03:28:03;;;;;;;1999.90;999.90;;;;;;;-0.70;80.38;162213.28;5042948;28;20468;-67
2022/01/11 03:30:30;;;;;;;1999.90;999.90;;;;;;;-0.77;80.09;162195.56;5039833;28;20062;-68
2022/01/11 03:32:57;;;;;;;1999.90;999.90;;;;;;;-0.39;78.40;162296.69;5037840;28;20060;-68
2022/01/11 03:35:24;;;;;;;1999.90;999.90;;;;;;;-0.40;78.79;162292.59;5047654;28;20098;-68
2022/01/11 03:37:52;;;;;;;1999.90;999.90;;;;;;;-0.59;78.74;162243.38;5047170;28;20110;-68
2022/01/11 03:40:22;;;;;;;1999.90;999.90;;;;;;;-0.22;78.15;162341.78;5045507;28;20511;-68
2022/01/11 03:42:49;;;;;;;1999.90;999.90;;;;;;;-0.75;79.11;162201.00;5049418;28;20434;-68
2022/01/11 03:45:17;;;;;;;1999.90;999.90;;;;;;;-0.45;78.86;162280.25;5047928;28;20076;-67
2022/01/11 03:47:44;;;;;;;1999.90;999.90;;;;;;;-0.19;77.95;162348.63;5046651;28;20088;-68
2022/01/11 03:50:12;;;;;;;1999.90;999.90;;;;;;;-0.28;79.09;162325.38;5045671;28;20909;-68
2022/01/11 03:52:39;;;;;;;1999.90;999.90;;;;;;;-0.07;78.46;162380.06;5040136;28;20061;-68
2022/01/11 03:55:20;;;;;;;1999.90;999.90;;;;;;;-0.09;77.19;162375.97;5049167;28;20102;-68
2022/01/11 03:57:49;;;;;;;1999.90;999.90;;;;;;;-0.03;78.34;162392.38;5048436;28;20053;-68
2022/01/11 04:00:18;;;;;;;1999.90;999.90;;;;;;;-0.49;78.95;162269.34;5048030;28;20083;-68
2022/01/11 04:02:45;;;;;;;1999.90;999.90;;;;;;;-0.55;78.65;162252.97;5046001;28;20152;-68
2022/01/11 04:05:13;;;;;;;1999.90;999.90;;;;;;;-0.83;80.22;162177.75;5042158;28;20041;-68
2022/01/11 04:07:43;;;;;;;1999.90;999.90;;;;;;;-0.75;79.99;162201.00;5047021;28;20049;-68
2022/01/11 04:10:10;;;;;;;1999.90;999.90;;;;;;;-0.77;80.44;162195.56;5048759;28;20112;-68
2022/01/11 04:12:37;;;;;;;1999.90;999.90;;;;;;;-0.65;80.47;162226.97;5049058;28;20123;-68
2022/01/11 04:15:04;;;;;;;1999.90;999.90;;;;;;;-0.39;79.40;162296.69;5047761;28;20064;-68
2022/01/11 04:17:30;;;;;;;1999.90;999.90;;;;;;;-0.62;79.58;162235.19;5041317;28;20103;-68
2022/01/11 04:19:57;;;;;;;1999.90;999.90;;;;;;;-1.08;80.51;162113.56;5041920;28;20077;-68
2022/01/11 04:22:24;;;;;;;1999.90;999.90;;;;;;;-1.30;81.33;162054.81;5042155;28;20057;-68
2022/01/11 04:24:51;;;;;;;1999.90;999.90;;;;;;;-1.45;82.23;162015.22;5048917;28;20053;-68
2022/01/11 04:27:18;;;;;;;1999.90;999.90;;;;;;;-0.64;80.30;162228.31;5049550;28;20045;-68
2022/01/11 04:29:44;;;;;;;1999.90;999.90;;;;;;;-1.17;81.05;162089.00;5048357;28;20056;-68
2022/01/11 04:32:11;;;;;;;1999.90;999.90;;;;;;;-1.08;80.66;162113.56;5048144;28;20088;-68
2022/01/11 04:34:37;;;;;;;1999.90;999.90;;;;;;;-1.16;80.93;162091.75;5044273;28;20088;-68
2022/01/11 04:37:04;;;;;;;1999.90;999.90;;;;;;;-1.46;80.62;162011.13;5048093;28;20083;-67
2022/01/11 04:39:31;;;;;;;1999.90;999.90;;;;;;;-1.73;81.82;161938.78;5042237;28;20080;-67
2022/01/11 04:41:58;;;;;;;1999.90;999.90;;;;;;;-1.16;79.97;162090.34;5049011;28;20047;-68
2022/01/11 04:44:24;;;;;;;1999.90;999.90;;;;;;;-1.13;79.57;162098.53;5048119;28;20091;-67
2022/01/11 04:46:51;;;;;;;1999.90;999.90;;;;;;;-1.67;81.59;161956.50;5046827;28;20420;-67
2022/01/11 04:49:18;;;;;;;1999.90;999.90;;;;;;;-1.10;79.77;162108.13;5046918;28;20041;-67
2022/01/11 04:51:46;;;;;;;1999.90;999.90;;;;;;;-0.98;78.61;162138.16;5045844;28;20045;-67
2022/01/11 04:54:13;;;;;;;1999.90;999.90;;;;;;;-1.55;80.74;161987.91;5056387;28;20498;-67
2022/01/11 04:56:39;;;;;;;1999.90;999.90;;;;;;;-1.63;81.39;161967.44;5061843;28;20115;-67
2022/01/11 04:59:06;;;;;;;1999.90;999.90;;;;;;;-1.42;80.90;162022.06;5047856;28;20080;-67
2022/01/11 05:01:33;;;;;;;1999.90;999.90;;;;;;;-1.38;80.71;162031.66;5046073;28;20049;-67
2022/01/11 05:04:00;;;;;;;1999.90;999.90;;;;;;;-1.46;81.56;162012.53;5046972;28;20060;-67
2022/01/11 05:06:26;;;;;;;1999.90;999.90;;;;;;;-1.32;80.74;162049.38;5048497;28;20045;-67
2022/01/11 05:08:53;;;;;;;1999.90;999.90;;;;;;;-2.20;82.43;161815.91;5029727;28;20053;-67
2022/01/11 05:11:21;;;;;;;1999.90;999.90;;;;;;;-2.28;82.69;161792.72;5048121;28;20080;-67
2022/01/11 05:13:47;;;;;;;1999.90;999.90;;;;;;;-1.84;81.65;161911.47;5046780;28;20083;-67
2022/01/11 05:16:14;;;;;;;1999.90;999.90;;;;;;;-2.43;81.97;161754.47;5048279;28;20394;-67
2022/01/11 05:18:40;;;;;;;1999.90;999.90;;;;;;;-2.30;82.27;161788.63;5040587;28;20083;-67
2022/01/11 05:21:07;;;;;;;1999.90;999.90;;;;;;;-2.15;82.06;161829.53;5049000;28;20049;-67
2022/01/11 05:23:34;;;;;;;1999.90;999.90;;;;;;;-2.15;81.26;161829.53;5047492;28;20473;-67
2022/01/11 05:26:02;;;;;;;1999.90;999.90;;;;;;;-2.21;82.02;161813.19;5050684;28;20083;-67
2022/01/11 05:28:29;;;;;;;1999.90;999.90;;;;;;;-1.84;81.67;161911.47;5054142;28;20389;-67
2022/01/11 05:30:56;;;;;;;1999.90;999.90;;;;;;;-2.26;82.89;161799.56;5054411;28;20049;-67
2022/01/11 05:33:23;;;;;;;1999.90;999.90;;;;;;;-2.16;82.53;161825.44;5056175;28;20491;-67
2022/01/11 05:35:49;;;;;;;1999.90;999.90;;;;;;;-2.23;82.30;161807.72;5053826;28;20070;-67
2022/01/11 05:38:16;;;;;;;1999.90;999.90;;;;;;;-1.96;82.11;161880.06;5051895;28;20053;-67
2022/01/11 05:40:42;;;;;;;1999.90;999.90;;;;;;;-1.58;81.40;161978.38;5052447;28;20065;-67
2022/01/11 05:43:11;;;;;;;1999.90;999.90;;;;;;;-1.18;79.87;162086.25;5050539;28;20087;-67
2022/01/11 05:45:38;;;;;;;1999.90;999.90;;;;;;;-1.39;80.65;162030.25;5039250;28;20053;-67
2022/01/11 05:48:05;;;;;;;1999.90;999.90;;;;;;;-1.10;80.75;162106.78;5045896;28;20061;-68
2022/01/11 05:50:32;;;;;;;1999.90;999.90;;;;;;;-1.22;81.02;162075.34;5046877;28;20081;-68
2022/01/11 05:52:58;;;;;;;1999.90;999.90;;;;;;;-0.76;79.68;162198.31;5047652;28;20092;-68
2022/01/11 05:55:25;;;;;;;1999.90;999.90;;;;;;;-0.75;79.86;162201.00;5046330;28;20577;-68
2022/01/11 05:57:51;;;;;;;1999.90;999.90;;;;;;;-0.51;79.28;162263.84;5047057;28;20098;-68
2022/01/11 06:00:20;;;;;;;1999.90;999.90;;;;;;;-0.54;79.24;162257.06;5047909;28;20076;-68
2022/01/11 06:02:52;;;;;;;1999.90;999.90;;;;;;;-0.27;77.40;162326.72;5045325;28;20056;-68
2022/01/11 06:05:19;;;;;;;1999.90;999.90;;;;;;;-0.72;79.49;162209.19;5047170;28;20064;-68
2022/01/11 06:07:45;;;;;;;1999.90;999.90;;;;;;;-0.57;79.13;162247.47;5045712;28;20079;-68
2022/01/11 06:10:14;;;;;;;1999.90;999.90;;;;;;;-0.44;78.13;162281.66;5046320;28;20104;-68
2022/01/11 06:12:41;;;;;;;1999.90;999.90;;;;;;;-1.01;80.54;162129.94;5045547;28;20053;-68
2022/01/11 06:15:08;;;;;;;1999.90;999.90;;;;;;;-0.90;80.37;162160.03;5046779;28;20049;-68
2022/01/11 06:17:35;;;;;;;1999.90;999.90;;;;;;;-1.01;80.45;162129.94;5046190;28;20085;-68
2022/01/11 06:20:02;;;;;;;1999.90;999.90;;;;;;;-1.48;82.54;162005.69;5047165;28;20103;-68
2022/01/11 06:22:28;;;;;;;1999.90;999.90;;;;;;;-1.75;83.84;161933.34;5047353;28;20461;-68
2022/01/11 06:25:03;;;;;;;1999.90;999.90;;;;;;;-0.99;81.53;162136.78;5046412;28;20342;-68
2022/01/11 06:27:31;;;;;;;1999.90;999.90;;;;;;;-1.75;82.30;161934.69;5048368;28;20128;-68
2022/01/11 06:29:58;;;;;;;1999.90;999.90;;;;;;;-1.48;82.73;162007.03;5048227;28;20076;-68
2022/01/11 06:32:25;;;;;;;1999.90;999.90;;;;;;;-1.39;81.88;162030.25;5045571;28;20045;-68
2022/01/11 06:34:53;;;;;;;1999.90;999.90;;;;;;;-1.65;82.67;161960.63;5047106;28;20084;-68
2022/01/11 06:37:20;;;;;;;1999.90;999.90;;;;;;;-1.89;82.63;161897.84;5047568;28;20037;-68
2022/01/11 06:39:47;;;;;;;1999.90;999.90;;;;;;;-2.26;84.56;161798.16;5047303;28;20114;-68
2022/01/11 06:42:13;;;;;;;1999.90;999.90;;;;;;;-1.28;82.25;162058.91;5047758;28;20049;-68
2022/01/11 06:44:41;;;;;;;1999.90;999.90;;;;;;;-1.53;82.09;161992.00;5047889;28;20049;-68
2022/01/11 06:47:09;;;;;;;1999.90;999.90;;;;;;;-1.47;82.19;162009.78;5046141;28;20052;-68
2022/01/11 06:49:36;;;;;;;1999.90;999.90;;;;;;;-1.57;82.57;161982.47;5048154;28;20418;-68
2022/01/11 06:52:03;;;;;;;1999.90;999.90;;;;;;;-1.17;81.60;162089.00;5047136;28;20078;-68
2022/01/11 06:54:30;;;;;;;1999.90;999.90;;;;;;;-1.17;82.61;162089.00;5047099;28;20543;-68
2022/01/11 06:56:57;;;;;;;1999.90;999.90;;;;;;;-1.31;83.45;162050.72;5047748;28;20045;-70
2022/01/11 06:59:23;;;;;;;1999.90;999.90;;;;;;;-1.17;83.52;162087.63;5047264;28;20088;-69
2022/01/11 07:01:50;;;;;;;1999.90;999.90;;;;;;;-1.13;84.23;162099.94;5047318;28;20060;-69
2022/01/11 07:04:17;;;;;;;1999.90;999.90;;;;;;;-1.01;83.75;162129.94;5045892;28;20052;-69
2022/01/11 07:06:43;;;;;;;1999.90;999.90;;;;;;;-1.54;85.79;161990.66;5048330;28;20088;-69
2022/01/11 07:09:10;;;;;;;1999.90;999.90;;;;;;;-1.51;85.94;161998.84;5051360;28;20088;-69
2022/01/11 07:11:37;;;;;;;1999.90;999.90;;;;;;;-1.34;86.39;162042.53;5051577;28;20358;-70
2022/01/11 07:14:04;;;;;;;1999.90;999.90;;;;;;;-1.49;86.86;162004.34;5042562;28;20045;-69
2022/01/11 07:16:31;;;;;;;1999.90;999.90;;;;;;;-1.17;86.37;162087.63;5050509;28;20044;-69
2022/01/11 07:18:57;;;;;;;1999.90;999.90;;;;;;;-1.16;85.97;162091.75;5046655;28;20426;-69
2022/01/11 07:21:24;;;;;;;1999.90;999.90;;;;;;;-1.60;87.28;161974.28;5050568;28;20077;-69
2022/01/11 07:23:50;;;;;;;1999.90;999.90;;;;;;;-1.14;86.92;162097.19;5051292;28;20114;-69
2022/01/11 07:26:17;;;;;;;1999.90;999.90;;;;;;;-1.05;86.81;162119.06;5051519;28;20099;-69
2022/01/11 07:28:43;;;;;;;1999.90;999.90;;;;;;;-1.39;87.71;162030.25;5049497;28;20442;-69
2022/01/11 07:31:10;;;;;;;1999.90;999.90;;;;;;;-1.73;89.31;161938.78;5050843;28;20146;-69
2022/01/11 07:33:36;;;;;;;1999.90;999.90;;;;;;;-1.42;89.51;162023.41;5047919;28;20072;-69
2022/01/11 07:36:04;;;;;;;1999.90;999.90;;;;;;;-1.59;89.53;161977.03;5046725;28;20045;-69
2022/01/11 07:38:31;;;;;;;1999.90;999.90;;;;;;;-0.99;87.78;162135.44;5038829;28;20118;-69
2022/01/11 07:40:57;;;;;;;1999.90;999.90;;;;;;;-1.48;89.20;162007.03;5050368;28;20045;-69
2022/01/11 07:43:24;;;;;;;1999.90;999.90;;;;;;;-1.05;88.02;162119.06;5048023;28;20450;-69
2022/01/11 07:45:50;;;;;;;1999.90;999.90;;;;;;;-1.63;90.49;161966.09;5047823;28;20099;-69
2022/01/11 07:48:17;;;;;;;1999.90;999.90;;;;;;;-1.43;89.61;162020.72;5050080;28;20057;-69
2022/01/11 07:50:43;;;;;;;1999.90;999.90;;;;;;;-1.24;89.17;162069.84;5050522;28;20406;-69
2022/01/11 07:53:10;;;;;;;1999.90;999.90;;;;;;;-1.03;88.76;162125.84;5051523;28;20053;-69
2022/01/11 07:55:38;;;;;;;1999.90;999.90;;;;;;;-0.88;87.81;162165.47;5048356;28;20426;-69
2022/01/11 07:58:04;;;;;;;1999.90;999.90;;;;;;;-0.72;87.50;162207.84;5051460;28;20319;-69
2022/01/11 08:00:31;;;;;;;1999.90;999.90;;;;;;;-1.50;90.19;162001.59;5049780;28;20045;-69
2022/01/11 08:02:58;;;;;;;1999.90;999.90;;;;;;;-0.98;89.18;162138.16;5049775;28;20048;-69
2022/01/11 08:05:25;;;;;;;1999.90;999.90;;;;;;;-1.22;89.45;162075.34;5050206;28;20136;-69
2022/01/11 08:07:51;;;;;;;1999.90;999.90;;;;;;;-1.41;89.80;162024.81;5040628;28;20076;-69
2022/01/11 08:10:18;;;;;;;1999.90;999.90;;;;;;;-1.53;90.85;161993.41;5049431;28;20080;-69
2022/01/11 08:12:49;;;;;;;;;;;;;;;-1.08;90.01;162112.22;5049688;28;20137;-69
2022/01/11 08:15:16;;;;;;;1999.90;999.90;;;;;;;-1.07;89.16;162114.97;5045377;28;19991;-69
2022/01/11 08:17:42;;;;;;;1999.90;999.90;;;;;;;-1.18;89.74;162084.91;5046039;28;20202;-69
2022/01/11 08:20:09;;;;;;;1999.90;999.90;;;;;;;-0.63;88.51;162232.44;5056905;28;20067;-69
2022/01/11 08:22:36;;;;;;;1999.90;999.90;;;;;;;-0.73;89.18;162206.50;5037075;28;20057;-69
2022/01/11 08:25:03;;;;;;;1999.90;999.90;;;;;;;-0.96;88.16;162145.00;5048520;28;20044;-68
2022/01/11 08:27:30;;;;;;;1999.90;999.90;;;;;;;-1.33;89.45;162046.63;5049289;28;20049;-68
2022/01/11 08:29:57;;;;;;;1999.90;999.90;;;;;;;-1.02;89.26;162127.25;5046926;28;20052;-68
2022/01/11 08:32:23;;;;;;;1999.90;999.90;;;;;;;-0.90;88.75;162160.03;5046571;28;20107;-68
2022/01/11 08:34:50;;;;;;;1999.90;999.90;;;;;;;-0.54;87.15;162255.66;5047782;28;20701;-68
2022/01/11 08:37:17;;;;;;;1999.90;999.90;;;;;;;-0.57;87.34;162247.47;5048955;28;20077;-68
2022/01/11 08:39:44;;;;;;;1999.90;999.90;;;;;;;-0.09;86.38;162375.97;5046472;28;20076;-68
2022/01/11 08:42:14;;;;;;;1999.90;999.90;;;;;;;-0.31;85.90;162315.78;5047407;28;20087;-68
2022/01/11 08:44:46;;;;;;;1999.90;999.90;;;;;;;-0.24;85.22;162334.94;5048128;28;20102;-68
2022/01/11 08:47:14;;;;;;;1999.90;999.90;;;;;;;0.16;84.37;162441.56;5047940;28;20041;-68
2022/01/11 08:49:41;;;;;;;1999.90;999.90;;;;;;;0.29;83.90;162475.75;5046085;28;20330;-68
2022/01/11 08:52:08;;;;;;;1999.90;999.90;;;;;;;-0.43;86.36;162284.34;5051513;28;20106;-68
2022/01/11 08:54:35;;;;;;;1999.90;999.90;;;;;;;-0.32;85.78;162313.09;5044091;28;20100;-68
2022/01/11 08:57:02;;;;;;;1999.90;999.90;;;;;;;-0.38;85.77;162299.38;5047409;28;20087;-68
2022/01/11 08:59:29;;;;;;;1999.90;999.90;;;;;;;-0.76;87.24;162198.31;5047027;28;20331;-68
2022/01/11 09:02:02;;;;;;;1999.90;999.90;;;;;;;-0.50;86.57;162266.59;5043247;28;20048;-68
2022/01/11 09:04:29;;;;;;;1999.90;999.90;;;;;;;-0.50;86.84;162265.25;5036787;28;20045;-68
2022/01/11 09:06:57;;;;;;;1999.90;999.90;;;;;;;-0.21;86.71;162344.53;5046936;28;20082;-68
2022/01/11 09:09:26;;;;;;;1999.90;999.90;;;;;;;-0.05;85.62;162385.53;5047374;28;20045;-68
2022/01/11 09:11:53;;;;;;;1999.90;999.90;;;;;;;-0.32;85.66;162313.09;5046170;28;20088;-68
2022/01/11 09:14:20;;;;;;;1999.90;999.90;;;;;;;-0.11;85.38;162369.13;5045196;28;20053;-68
2022/01/11 09:16:47;;;;;;;1999.90;999.90;;;;;;;0.19;84.31;162449.75;5037449;28;20079;-68
2022/01/11 09:19:15;;;;;;;1999.90;999.90;;;;;;;-0.31;86.15;162315.78;5048280;28;20507;-68
2022/01/11 09:21:42;;;;;;;1999.90;999.90;;;;;;;-0.01;84.71;162397.81;5046535;28;20154;-68
2022/01/11 09:24:09;;;;;;;1999.90;999.90;;;;;;;0.22;83.94;162457.97;5047188;28;20079;-68
2022/01/11 09:26:37;;;;;;;1999.90;999.90;;;;;;;0.47;84.04;162524.97;5047248;28;20085;-68
2022/01/11 09:29:04;;;;;;;1999.90;999.90;;;;;;;0.37;83.62;162496.28;5041791;28;20109;-68
2022/01/11 09:31:30;;;;;;;1999.90;999.90;;;;;;;-0.07;85.24;162380.06;5048198;28;20088;-68
2022/01/11 09:33:57;;;;;;;1999.90;999.90;;;;;;;-0.26;85.76;162329.47;5047353;28;20049;-68
2022/01/11 09:36:24;;;;;;;1999.90;999.90;;;;;;;-0.15;85.55;162358.19;5046340;28;20090;-68
2022/01/11 09:38:50;;;;;;;1999.90;999.90;;;;;;;0.28;84.33;162474.41;5039370;28;20489;-68
2022/01/11 09:41:17;;;;;;;1999.90;999.90;;;;;;;0.07;84.02;162416.97;5041728;28;20683;-68
2022/01/11 09:43:44;;;;;;;1999.90;999.90;;;;;;;-0.10;85.21;162373.22;5047031;28;20091;-68
2022/01/11 09:46:10;;;;;;;1999.90;999.90;;;;;;;0.11;84.57;162429.25;5044514;28;20085;-68
2022/01/11 09:48:37;;;;;;;1999.90;999.90;;;;;;;0.30;83.57;162479.88;5045919;28;20061;-68
2022/01/11 09:51:04;;;;;;;1999.90;999.90;;;;;;;0.12;83.33;162430.63;5045776;28;20075;-68
2022/01/11 09:53:31;;;;;;;1999.90;999.90;;;;;;;0.00;83.94;162399.22;5046857;28;20045;-68
2022/01/11 09:56:04;;;;;;;1999.90;999.90;;;;;;;0.18;83.82;162447.06;5045907;28;20114;-68
2022/01/11 09:58:32;;;;;;;1999.90;999.90;;;;;;;0.05;84.50;162412.88;5046818;28;20338;-68
2022/01/11 10:00:59;;;;;;;1999.90;999.90;;;;;;;0.20;83.15;162452.53;5046859;28;20106;-68
2022/01/11 10:03:26;;;;;;;1999.90;999.90;;;;;;;-0.15;85.11;162359.53;5046825;28;20060;-68
2022/01/11 10:05:53;;;;;;;1999.90;999.90;;;;;;;0.54;82.48;162542.78;5046100;28;20107;-68
2022/01/11 10:08:23;;;;;;;1999.90;999.90;;;;;;;0.29;82.46;162475.75;5046344;28;20442;-68
2022/01/11 10:10:52;;;;;;;1999.90;999.90;;;;;;;0.28;83.54;162474.41;5045515;28;20087;-68
2022/01/11 10:13:32;;;;;;;1999.90;999.90;;;;;;;-0.43;84.38;162285.75;5046811;28;20350;-68
2022/01/11 10:16:27;;;;;;;1999.90;999.90;;;;;;;0.03;84.21;162406.00;5044047;28;20110;-68
2022/01/11 10:18:55;;;;;;;1999.90;999.90;;;;;;;0.31;83.44;162482.63;5046052;28;20048;-68
2022/01/11 10:21:38;;;;;;;1999.90;999.90;;;;;;;0.64;82.04;162570.13;5046686;28;20079;-68
2022/01/11 10:24:19;;;;;;;1999.90;999.90;;;;;;;0.24;83.11;162463.47;5045843;28;20115;-68
2022/01/11 10:26:46;;;;;;;1999.90;999.90;;;;;;;0.20;82.35;162452.53;5044438;28;20052;-68
2022/01/11 10:29:40;;;;;;;1999.90;999.90;;;;;;;0.18;81.32;162447.06;5045250;28;20472;-68
2022/01/11 10:32:30;;;;;;;1999.90;999.90;;;;;;;0.94;80.19;162649.47;5044808;28;20056;-68
2022/01/11 10:35:01;;;;;;;1999.90;999.90;;;;;;;1.01;79.74;162668.63;5045817;28;20438;-68
2022/01/11 10:37:27;;;;;;;1999.90;999.90;;;;;;;1.40;77.43;162772.63;5045610;28;20058;-68
2022/01/11 10:40:25;;;;;;;;;;;;;;;1.31;78.44;162746.59;5046723;28;20056;-68
2022/01/11 10:42:56;;;;;;;1999.90;999.90;;;;;;;0.86;78.16;162628.97;5042457;28;19982;-68
2022/01/11 10:45:29;;;;;;;1999.90;999.90;;;;;;;0.91;79.78;162641.28;5049797;28;20084;-68
2022/01/11 10:47:59;;;;;;;1999.90;999.90;;;;;;;1.07;78.36;162683.66;5049430;28;20055;-68
2022/01/11 10:50:37;;;;;;;1999.90;999.90;;;;;;;1.22;77.27;162723.31;5048153;28;20080;-68
2022/01/11 10:53:10;;;;;;;1999.90;999.90;;;;;;;0.58;78.88;162553.72;5049680;28;20452;-68
2022/01/11 10:55:36;;;;;;;1999.90;999.90;;;;;;;0.80;79.39;162611.16;5045776;28;20076;-68
2022/01/11 10:58:25;;;;;;;1999.90;999.90;;;;;;;0.91;78.51;162641.28;5044358;28;20155;-68